sensor_id;sensor_type;location;lat;lon;timestamp;temperature;humidity
59128;DHT22;44912;52.754;5.994;2023-04-25T00:02:02;6.40;99.90
59128;DHT22;44912;52.754;5.994;2023-04-25T00:04:28;6.40;99.90
59128;DHT22;44912;52.754;5.994;2023-04-25T00:06:55;6.40;99.90
59128;DHT22;44912;52.754;5.994;2023-04-25T00:09:21;6.40;99.90
59128;DHT22;44912;52.754;5.994;2023-04-25T00:11:47;6.40;99.90
59128;DHT22;44912;52.754;5.994;2023-04-25T00:14:13;6.40;99.90
59128;DHT22;44912;52.754;5.994;2023-04-25T00:16:39;6.50;99.90
59128;DHT22;44912;52.754;5.994;2023-04-25T00:19:06;6.50;99.90
59128;DHT22;44912;52.754;5.994;2023-04-25T00:21:33;6.40;99.90
59128;DHT22;44912;52.754;5.994;2023-04-25T00:23:59;6.40;99.90
59128;DHT22;44912;52.754;5.994;2023-04-25T00:26:25;6.40;99.90
59128;DHT22;44912;52.754;5.994;2023-04-25T00:28:51;6.40;99.90
59128;DHT22;44912;52.754;5.994;2023-04-25T00:31:16;6.30;99.90
59128;DHT22;44912;52.754;5.994;2023-04-25T00:33:42;6.30;99.90
59128;DHT22;44912;52.754;5.994;2023-04-25T00:36:08;6.30;99.90
59128;DHT22;44912;52.754;5.994;2023-04-25T00:38:33;6.20;99.90
59128;DHT22;44912;52.754;5.994;2023-04-25T00:41:00;6.10;99.90
59128;DHT22;44912;52.754;5.994;2023-04-25T00:43:26;6.10;99.90
59128;DHT22;44912;52.754;5.994;2023-04-25T00:45:53;6.10;99.90
59128;DHT22;44912;52.754;5.994;2023-04-25T00:48:23;6.10;99.90
59128;DHT22;44912;52.754;5.994;2023-04-25T00:50:53;6.10;99.90
59128;DHT22;44912;52.754;5.994;2023-04-25T00:53:23;6.20;99.90
59128;DHT22;44912;52.754;5.994;2023-04-25T00:55:50;6.20;99.90
59128;DHT22;44912;52.754;5.994;2023-04-25T00:58:19;6.20;99.90
59128;DHT22;44912;52.754;5.994;2023-04-25T01:00:46;6.10;99.90
59128;DHT22;44912;52.754;5.994;2023-04-25T01:03:13;6.00;99.90
59128;DHT22;44912;52.754;5.994;2023-04-25T01:05:40;6.00;99.90
59128;DHT22;44912;52.754;5.994;2023-04-25T01:08:07;5.90;99.90
59128;DHT22;44912;52.754;5.994;2023-04-25T01:10:32;6.00;99.90
59128;DHT22;44912;52.754;5.994;2023-04-25T01:12:58;6.00;99.90
59128;DHT22;44912;52.754;5.994;2023-04-25T01:15:23;6.00;99.90
59128;DHT22;44912;52.754;5.994;2023-04-25T01:17:49;6.00;99.90
59128;DHT22;44912;52.754;5.994;2023-04-25T01:20:15;6.10;99.90
59128;DHT22;44912;52.754;5.994;2023-04-25T01:22:41;6.10;99.90
59128;DHT22;44912;52.754;5.994;2023-04-25T01:25:07;6.10;99.90
59128;DHT22;44912;52.754;5.994;2023-04-25T01:27:34;6.10;99.90
59128;DHT22;44912;52.754;5.994;2023-04-25T01:30:00;6.10;99.90
59128;DHT22;44912;52.754;5.994;2023-04-25T01:32:26;6.20;99.90
59128;DHT22;44912;52.754;5.994;2023-04-25T01:34:52;6.20;99.90
59128;DHT22;44912;52.754;5.994;2023-04-25T01:37:18;6.20;99.90
59128;DHT22;44912;52.754;5.994;2023-04-25T01:39:43;6.30;99.90
59128;DHT22;44912;52.754;5.994;2023-04-25T01:42:09;6.30;99.90
59128;DHT22;44912;52.754;5.994;2023-04-25T01:44:35;6.30;99.90
59128;DHT22;44912;52.754;5.994;2023-04-25T01:47:00;6.30;99.90
59128;DHT22;44912;52.754;5.994;2023-04-25T01:49:26;6.30;99.90
59128;DHT22;44912;52.754;5.994;2023-04-25T01:51:51;6.30;99.90
59128;DHT22;44912;52.754;5.994;2023-04-25T01:54:18;6.30;99.90
59128;DHT22;44912;52.754;5.994;2023-04-25T01:56:50;6.30;99.90
59128;DHT22;44912;52.754;5.994;2023-04-25T01:59:16;6.30;99.90
59128;DHT22;44912;52.754;5.994;2023-04-25T02:01:41;6.30;99.90
59128;DHT22;44912;52.754;5.994;2023-04-25T02:04:07;6.30;99.90
59128;DHT22;44912;52.754;5.994;2023-04-25T02:06:32;6.30;99.90
59128;DHT22;44912;52.754;5.994;2023-04-25T02:08:58;6.30;99.90
59128;DHT22;44912;52.754;5.994;2023-04-25T02:11:23;6.30;99.90
59128;DHT22;44912;52.754;5.994;2023-04-25T02:13:49;6.30;99.90
59128;DHT22;44912;52.754;5.994;2023-04-25T02:16:15;6.30;99.90
59128;DHT22;44912;52.754;5.994;2023-04-25T02:18:40;6.30;99.90
59128;DHT22;44912;52.754;5.994;2023-04-25T02:21:06;6.30;99.90
59128;DHT22;44912;52.754;5.994;2023-04-25T02:23:31;6.30;99.90
59128;DHT22;44912;52.754;5.994;2023-04-25T02:25:57;6.30;99.90
59128;DHT22;44912;52.754;5.994;2023-04-25T02:28:24;6.30;99.90
59128;DHT22;44912;52.754;5.994;2023-04-25T02:30:50;6.20;99.90
59128;DHT22;44912;52.754;5.994;2023-04-25T02:33:15;6.20;99.90
59128;DHT22;44912;52.754;5.994;2023-04-25T02:35:42;6.20;99.90
59128;DHT22;44912;52.754;5.994;2023-04-25T02:38:07;6.30;99.90
59128;DHT22;44912;52.754;5.994;2023-04-25T02:40:33;6.30;99.90
59128;DHT22;44912;52.754;5.994;2023-04-25T02:42:58;6.30;99.90
59128;DHT22;44912;52.754;5.994;2023-04-25T02:45:24;6.30;99.90
59128;DHT22;44912;52.754;5.994;2023-04-25T02:47:49;6.30;99.90
59128;DHT22;44912;52.754;5.994;2023-04-25T02:50:15;6.30;99.90
59128;DHT22;44912;52.754;5.994;2023-04-25T02:52:41;6.20;99.90
59128;DHT22;44912;52.754;5.994;2023-04-25T02:55:06;6.30;99.90
59128;DHT22;44912;52.754;5.994;2023-04-25T02:57:32;6.30;99.90
59128;DHT22;44912;52.754;5.994;2023-04-25T02:59:57;6.30;99.90
59128;DHT22;44912;52.754;5.994;2023-04-25T03:02:23;6.30;99.90
59128;DHT22;44912;52.754;5.994;2023-04-25T03:04:48;6.30;99.90
59128;DHT22;44912;52.754;5.994;2023-04-25T03:07:14;6.30;99.90
59128;DHT22;44912;52.754;5.994;2023-04-25T03:09:40;6.30;99.90
59128;DHT22;44912;52.754;5.994;2023-04-25T03:12:05;6.30;99.90
59128;DHT22;44912;52.754;5.994;2023-04-25T03:14:31;6.30;99.90
59128;DHT22;44912;52.754;5.994;2023-04-25T03:16:56;6.30;99.90
59128;DHT22;44912;52.754;5.994;2023-04-25T03:19:22;6.20;99.90
59128;DHT22;44912;52.754;5.994;2023-04-25T03:21:47;6.20;99.90
59128;DHT22;44912;52.754;5.994;2023-04-25T03:24:13;6.20;99.90
59128;DHT22;44912;52.754;5.994;2023-04-25T03:26:39;6.10;99.90
59128;DHT22;44912;52.754;5.994;2023-04-25T03:29:04;6.10;99.90
59128;DHT22;44912;52.754;5.994;2023-04-25T03:31:30;6.10;99.90
59128;DHT22;44912;52.754;5.994;2023-04-25T03:33:56;6.10;99.90
59128;DHT22;44912;52.754;5.994;2023-04-25T03:36:21;6.00;99.90
59128;DHT22;44912;52.754;5.994;2023-04-25T03:38:47;6.00;99.90
59128;DHT22;44912;52.754;5.994;2023-04-25T03:41:13;6.00;99.90
59128;DHT22;44912;52.754;5.994;2023-04-25T03:43:39;6.00;99.90
59128;DHT22;44912;52.754;5.994;2023-04-25T03:46:04;6.00;99.90
59128;DHT22;44912;52.754;5.994;2023-04-25T03:48:30;6.00;99.90
59128;DHT22;44912;52.754;5.994;2023-04-25T03:50:55;6.00;99.90
59128;DHT22;44912;52.754;5.994;2023-04-25T03:53:21;6.00;99.90
59128;DHT22;44912;52.754;5.994;2023-04-25T03:55:47;6.00;99.90
59128;DHT22;44912;52.754;5.994;2023-04-25T03:58:12;6.00;99.90
59128;DHT22;44912;52.754;5.994;2023-04-25T04:00:38;6.10;99.90
59128;DHT22;44912;52.754;5.994;2023-04-25T04:03:03;6.10;99.90
59128;DHT22;44912;52.754;5.994;2023-04-25T04:05:29;6.10;99.90
59128;DHT22;44912;52.754;5.994;2023-04-25T04:07:55;6.10;99.90
59128;DHT22;44912;52.754;5.994;2023-04-25T04:10:21;6.10;99.90
59128;DHT22;44912;52.754;5.994;2023-04-25T04:12:47;6.00;99.90
59128;DHT22;44912;52.754;5.994;2023-04-25T04:15:12;6.00;99.90
59128;DHT22;44912;52.754;5.994;2023-04-25T04:17:38;6.00;99.90
59128;DHT22;44912;52.754;5.994;2023-04-25T04:20:04;5.90;99.90
59128;DHT22;44912;52.754;5.994;2023-04-25T04:22:31;5.80;99.90
59128;DHT22;44912;52.754;5.994;2023-04-25T04:24:56;5.80;99.90
59128;DHT22;44912;52.754;5.994;2023-04-25T04:27:22;5.70;99.90
59128;DHT22;44912;52.754;5.994;2023-04-25T04:29:48;5.70;99.90
59128;DHT22;44912;52.754;5.994;2023-04-25T04:32:15;5.60;99.90
59128;DHT22;44912;52.754;5.994;2023-04-25T04:34:41;5.60;99.90
59128;DHT22;44912;52.754;5.994;2023-04-25T04:37:06;5.50;99.90
59128;DHT22;44912;52.754;5.994;2023-04-25T04:39:33;5.50;99.90
59128;DHT22;44912;52.754;5.994;2023-04-25T04:41:59;5.50;99.90
59128;DHT22;44912;52.754;5.994;2023-04-25T04:44:27;5.50;99.90
59128;DHT22;44912;52.754;5.994;2023-04-25T04:46:54;5.50;99.90
59128;DHT22;44912;52.754;5.994;2023-04-25T04:49:20;5.50;99.90
59128;DHT22;44912;52.754;5.994;2023-04-25T04:51:46;5.60;99.90
59128;DHT22;44912;52.754;5.994;2023-04-25T04:54:12;5.60;99.90
59128;DHT22;44912;52.754;5.994;2023-04-25T04:56:38;5.60;99.90
59128;DHT22;44912;52.754;5.994;2023-04-25T04:59:03;5.60;99.90
59128;DHT22;44912;52.754;5.994;2023-04-25T05:01:29;5.60;99.90
59128;DHT22;44912;52.754;5.994;2023-04-25T05:03:57;5.60;99.90
59128;DHT22;44912;52.754;5.994;2023-04-25T05:06:29;5.60;99.90
59128;DHT22;44912;52.754;5.994;2023-04-25T05:08:55;5.60;99.90
59128;DHT22;44912;52.754;5.994;2023-04-25T05:11:22;5.50;99.90
59128;DHT22;44912;52.754;5.994;2023-04-25T05:13:49;5.60;99.90
59128;DHT22;44912;52.754;5.994;2023-04-25T05:16:14;5.50;99.90
59128;DHT22;44912;52.754;5.994;2023-04-25T05:18:40;5.50;99.90
59128;DHT22;44912;52.754;5.994;2023-04-25T05:21:06;5.60;99.90
59128;DHT22;44912;52.754;5.994;2023-04-25T05:23:32;5.70;99.90
59128;DHT22;44912;52.754;5.994;2023-04-25T05:25:59;5.80;99.90
59128;DHT22;44912;52.754;5.994;2023-04-25T05:28:25;5.90;99.90
59128;DHT22;44912;52.754;5.994;2023-04-25T05:30:50;5.90;99.90
59128;DHT22;44912;52.754;5.994;2023-04-25T05:33:16;5.90;99.90
59128;DHT22;44912;52.754;5.994;2023-04-25T05:35:42;5.90;99.90
59128;DHT22;44912;52.754;5.994;2023-04-25T05:38:08;5.80;99.90
59128;DHT22;44912;52.754;5.994;2023-04-25T05:40:33;5.80;99.90
59128;DHT22;44912;52.754;5.994;2023-04-25T05:42:59;5.70;99.90
59128;DHT22;44912;52.754;5.994;2023-04-25T05:45:25;5.70;99.90
59128;DHT22;44912;52.754;5.994;2023-04-25T05:47:50;5.70;99.90
59128;DHT22;44912;52.754;5.994;2023-04-25T05:50:16;5.70;99.90
59128;DHT22;44912;52.754;5.994;2023-04-25T05:52:41;5.70;99.90
59128;DHT22;44912;52.754;5.994;2023-04-25T05:55:07;5.70;99.90
59128;DHT22;44912;52.754;5.994;2023-04-25T05:57:33;5.70;99.90
59128;DHT22;44912;52.754;5.994;2023-04-25T05:59:58;5.70;99.90
59128;DHT22;44912;52.754;5.994;2023-04-25T06:02:24;5.70;99.90
59128;DHT22;44912;52.754;5.994;2023-04-25T06:04:50;5.70;99.90
59128;DHT22;44912;52.754;5.994;2023-04-25T06:07:17;5.80;99.90
59128;DHT22;44912;52.754;5.994;2023-04-25T06:09:43;5.80;99.90
59128;DHT22;44912;52.754;5.994;2023-04-25T06:12:08;5.90;99.90
59128;DHT22;44912;52.754;5.994;2023-04-25T06:14:34;6.00;99.90
59128;DHT22;44912;52.754;5.994;2023-04-25T06:17:00;6.10;99.90
59128;DHT22;44912;52.754;5.994;2023-04-25T06:19:32;6.20;99.90
59128;DHT22;44912;52.754;5.994;2023-04-25T06:21:58;6.40;99.90
59128;DHT22;44912;52.754;5.994;2023-04-25T06:24:23;6.50;99.90
59128;DHT22;44912;52.754;5.994;2023-04-25T06:26:49;6.60;99.90
59128;DHT22;44912;52.754;5.994;2023-04-25T06:29:15;6.70;99.90
59128;DHT22;44912;52.754;5.994;2023-04-25T06:31:41;6.90;99.90
59128;DHT22;44912;52.754;5.994;2023-04-25T06:34:06;7.00;99.90
59128;DHT22;44912;52.754;5.994;2023-04-25T06:36:32;7.20;99.90
59128;DHT22;44912;52.754;5.994;2023-04-25T06:38:57;7.30;99.90
59128;DHT22;44912;52.754;5.994;2023-04-25T06:41:23;7.20;99.90
59128;DHT22;44912;52.754;5.994;2023-04-25T06:43:48;7.20;99.90
59128;DHT22;44912;52.754;5.994;2023-04-25T06:46:14;7.10;99.90
59128;DHT22;44912;52.754;5.994;2023-04-25T06:48:39;7.00;99.90
59128;DHT22;44912;52.754;5.994;2023-04-25T06:51:05;7.00;99.90
59128;DHT22;44912;52.754;5.994;2023-04-25T06:53:31;7.00;99.90
59128;DHT22;44912;52.754;5.994;2023-04-25T06:55:56;6.90;99.90
59128;DHT22;44912;52.754;5.994;2023-04-25T06:58:22;7.00;99.90
59128;DHT22;44912;52.754;5.994;2023-04-25T07:00:47;7.00;99.90
59128;DHT22;44912;52.754;5.994;2023-04-25T07:03:13;7.00;99.90
59128;DHT22;44912;52.754;5.994;2023-04-25T07:05:39;7.00;99.90
59128;DHT22;44912;52.754;5.994;2023-04-25T07:08:04;7.00;99.90
59128;DHT22;44912;52.754;5.994;2023-04-25T07:10:33;7.00;99.90
59128;DHT22;44912;52.754;5.994;2023-04-25T07:12:58;7.00;99.90
59128;DHT22;44912;52.754;5.994;2023-04-25T07:15:24;7.10;99.90
59128;DHT22;44912;52.754;5.994;2023-04-25T07:17:50;7.10;99.90
59128;DHT22;44912;52.754;5.994;2023-04-25T07:20:15;7.20;99.90
59128;DHT22;44912;52.754;5.994;2023-04-25T07:22:41;7.30;99.90
59128;DHT22;44912;52.754;5.994;2023-04-25T07:25:07;7.50;99.90
59128;DHT22;44912;52.754;5.994;2023-04-25T07:27:34;7.60;99.90
59128;DHT22;44912;52.754;5.994;2023-04-25T07:29:59;7.80;99.90
59128;DHT22;44912;52.754;5.994;2023-04-25T07:32:25;7.90;99.90
59128;DHT22;44912;52.754;5.994;2023-04-25T07:34:51;8.00;99.90
59128;DHT22;44912;52.754;5.994;2023-04-25T07:37:20;8.00;99.90
59128;DHT22;44912;52.754;5.994;2023-04-25T07:39:46;8.00;99.90
59128;DHT22;44912;52.754;5.994;2023-04-25T07:42:12;7.90;99.90
59128;DHT22;44912;52.754;5.994;2023-04-25T07:44:38;8.00;99.90
59128;DHT22;44912;52.754;5.994;2023-04-25T07:47:05;8.20;99.90
59128;DHT22;44912;52.754;5.994;2023-04-25T07:49:35;8.40;99.90
59128;DHT22;44912;52.754;5.994;2023-04-25T07:52:01;8.60;99.90
59128;DHT22;44912;52.754;5.994;2023-04-25T07:54:27;8.60;99.90
59128;DHT22;44912;52.754;5.994;2023-04-25T07:56:53;8.40;99.90
59128;DHT22;44912;52.754;5.994;2023-04-25T07:59:19;8.30;99.90
59128;DHT22;44912;52.754;5.994;2023-04-25T08:01:44;8.00;99.90
59128;DHT22;44912;52.754;5.994;2023-04-25T08:04:10;7.90;99.90
59128;DHT22;44912;52.754;5.994;2023-04-25T08:06:35;7.90;99.90
59128;DHT22;44912;52.754;5.994;2023-04-25T08:09:02;7.90;99.90
59128;DHT22;44912;52.754;5.994;2023-04-25T08:11:28;7.90;99.90
59128;DHT22;44912;52.754;5.994;2023-04-25T08:13:54;8.00;99.90
59128;DHT22;44912;52.754;5.994;2023-04-25T08:16:19;8.00;99.90
59128;DHT22;44912;52.754;5.994;2023-04-25T08:18:45;8.00;99.90
59128;DHT22;44912;52.754;5.994;2023-04-25T08:21:10;8.00;99.90
59128;DHT22;44912;52.754;5.994;2023-04-25T08:23:37;8.10;99.90
59128;DHT22;44912;52.754;5.994;2023-04-25T08:26:03;8.30;99.90
59128;DHT22;44912;52.754;5.994;2023-04-25T08:28:28;8.50;99.90
59128;DHT22;44912;52.754;5.994;2023-04-25T08:30:54;8.60;99.90
59128;DHT22;44912;52.754;5.994;2023-04-25T08:33:19;8.70;99.90
59128;DHT22;44912;52.754;5.994;2023-04-25T08:35:45;8.80;99.90
59128;DHT22;44912;52.754;5.994;2023-04-25T08:38:11;8.70;99.90
59128;DHT22;44912;52.754;5.994;2023-04-25T08:40:38;8.80;99.90
59128;DHT22;44912;52.754;5.994;2023-04-25T08:43:06;8.80;99.90
59128;DHT22;44912;52.754;5.994;2023-04-25T08:45:39;8.90;99.90
59128;DHT22;44912;52.754;5.994;2023-04-25T08:48:09;8.90;99.90
59128;DHT22;44912;52.754;5.994;2023-04-25T08:50:38;8.90;99.90
59128;DHT22;44912;52.754;5.994;2023-04-25T08:53:08;9.00;99.90
59128;DHT22;44912;52.754;5.994;2023-04-25T08:55:37;8.80;99.90
59128;DHT22;44912;52.754;5.994;2023-04-25T08:58:05;8.60;99.90
59128;DHT22;44912;52.754;5.994;2023-04-25T09:00:31;8.50;99.90
59128;DHT22;44912;52.754;5.994;2023-04-25T09:02:58;8.40;99.90
59128;DHT22;44912;52.754;5.994;2023-04-25T09:05:24;8.40;99.90
59128;DHT22;44912;52.754;5.994;2023-04-25T09:07:49;8.30;99.90
59128;DHT22;44912;52.754;5.994;2023-04-25T09:10:15;8.40;99.90
59128;DHT22;44912;52.754;5.994;2023-04-25T09:12:41;8.60;99.90
59128;DHT22;44912;52.754;5.994;2023-04-25T09:15:11;8.80;99.90
59128;DHT22;44912;52.754;5.994;2023-04-25T09:17:37;9.00;99.90
59128;DHT22;44912;52.754;5.994;2023-04-25T09:20:11;9.20;99.90
59128;DHT22;44912;52.754;5.994;2023-04-25T09:22:38;9.30;99.90
59128;DHT22;44912;52.754;5.994;2023-04-25T09:25:13;9.30;99.90
59128;DHT22;44912;52.754;5.994;2023-04-25T09:27:54;9.30;99.90
59128;DHT22;44912;52.754;5.994;2023-04-25T09:30:31;9.40;99.90
59128;DHT22;44912;52.754;5.994;2023-04-25T09:33:03;9.50;99.90
59128;DHT22;44912;52.754;5.994;2023-04-25T09:35:29;9.70;99.90
59128;DHT22;44912;52.754;5.994;2023-04-25T09:38:00;9.70;99.90
59128;DHT22;44912;52.754;5.994;2023-04-25T09:40:26;9.90;99.90
59128;DHT22;44912;52.754;5.994;2023-04-25T09:42:51;10.00;99.90
59128;DHT22;44912;52.754;5.994;2023-04-25T09:45:17;9.80;99.90
59128;DHT22;44912;52.754;5.994;2023-04-25T09:47:43;9.70;99.90
59128;DHT22;44912;52.754;5.994;2023-04-25T09:50:15;9.70;99.90
59128;DHT22;44912;52.754;5.994;2023-04-25T09:52:41;9.70;99.90
59128;DHT22;44912;52.754;5.994;2023-04-25T09:55:07;9.70;99.90
59128;DHT22;44912;52.754;5.994;2023-04-25T09:57:33;9.90;99.90
59128;DHT22;44912;52.754;5.994;2023-04-25T10:00:00;10.00;99.90
59128;DHT22;44912;52.754;5.994;2023-04-25T10:02:27;9.90;99.90
59128;DHT22;44912;52.754;5.994;2023-04-25T10:04:54;9.70;99.90
59128;DHT22;44912;52.754;5.994;2023-04-25T10:07:22;9.50;99.90
59128;DHT22;44912;52.754;5.994;2023-04-25T10:10:03;9.30;99.90
59128;DHT22;44912;52.754;5.994;2023-04-25T10:12:30;8.90;99.90
59128;DHT22;44912;52.754;5.994;2023-04-25T10:14:59;8.60;99.90
59128;DHT22;44912;52.754;5.994;2023-04-25T10:17:26;8.30;99.90
59128;DHT22;44912;52.754;5.994;2023-04-25T10:19:54;8.10;99.90
59128;DHT22;44912;52.754;5.994;2023-04-25T10:22:29;7.90;99.90
59128;DHT22;44912;52.754;5.994;2023-04-25T10:24:56;7.90;99.90
59128;DHT22;44912;52.754;5.994;2023-04-25T10:27:22;8.00;99.90
59128;DHT22;44912;52.754;5.994;2023-04-25T10:30:09;8.00;99.90
59128;DHT22;44912;52.754;5.994;2023-04-25T10:32:36;8.00;99.90
59128;DHT22;44912;52.754;5.994;2023-04-25T10:35:26;7.90;99.90
59128;DHT22;44912;52.754;5.994;2023-04-25T10:38:13;7.90;99.90
59128;DHT22;44912;52.754;5.994;2023-04-25T10:40:39;8.10;99.90
59128;DHT22;44912;52.754;5.994;2023-04-25T10:46:02;8.60;99.90
59128;DHT22;44912;52.754;5.994;2023-04-25T10:48:31;8.90;99.90
59128;DHT22;44912;52.754;5.994;2023-04-25T10:51:10;9.20;99.90
59128;DHT22;44912;52.754;5.994;2023-04-25T10:53:36;9.30;99.90
59128;DHT22;44912;52.754;5.994;2023-04-25T10:58:49;9.50;99.90
59128;DHT22;44912;52.754;5.994;2023-04-25T11:01:24;9.60;99.90
59128;DHT22;44912;52.754;5.994;2023-04-25T11:03:57;9.70;99.90
59128;DHT22;44912;52.754;5.994;2023-04-25T11:06:32;9.60;99.90
59128;DHT22;44912;52.754;5.994;2023-04-25T11:09:02;9.40;99.90
59128;DHT22;44912;52.754;5.994;2023-04-25T11:11:29;9.50;99.90
59128;DHT22;44912;52.754;5.994;2023-04-25T11:13:54;9.60;99.90
59128;DHT22;44912;52.754;5.994;2023-04-25T11:16:24;9.90;99.90
59128;DHT22;44912;52.754;5.994;2023-04-25T11:18:49;10.10;99.90
59128;DHT22;44912;52.754;5.994;2023-04-25T11:21:15;10.20;99.90
59128;DHT22;44912;52.754;5.994;2023-04-25T11:23:45;10.40;99.90
59128;DHT22;44912;52.754;5.994;2023-04-25T11:26:13;10.50;99.90
59128;DHT22;44912;52.754;5.994;2023-04-25T11:28:38;10.50;99.90
59128;DHT22;44912;52.754;5.994;2023-04-25T11:31:04;10.30;99.90
59128;DHT22;44912;52.754;5.994;2023-04-25T11:33:29;10.10;99.90
59128;DHT22;44912;52.754;5.994;2023-04-25T11:35:55;10.00;99.90
59128;DHT22;44912;52.754;5.994;2023-04-25T11:38:24;9.80;99.90
59128;DHT22;44912;52.754;5.994;2023-04-25T11:40:52;9.60;99.90
59128;DHT22;44912;52.754;5.994;2023-04-25T11:43:19;9.10;99.90
59128;DHT22;44912;52.754;5.994;2023-04-25T11:45:49;7.90;99.90
59128;DHT22;44912;52.754;5.994;2023-04-25T11:48:16;7.40;99.90
59128;DHT22;44912;52.754;5.994;2023-04-25T11:50:41;7.30;99.90
59128;DHT22;44912;52.754;5.994;2023-04-25T11:53:07;7.40;99.90
59128;DHT22;44912;52.754;5.994;2023-04-25T11:55:34;7.70;99.90
59128;DHT22;44912;52.754;5.994;2023-04-25T11:58:00;8.10;99.90
59128;DHT22;44912;52.754;5.994;2023-04-25T12:00:27;8.50;99.90
59128;DHT22;44912;52.754;5.994;2023-04-25T12:02:53;8.60;99.90
59128;DHT22;44912;52.754;5.994;2023-04-25T12:05:20;8.60;99.90
59128;DHT22;44912;52.754;5.994;2023-04-25T12:07:46;8.70;99.90
59128;DHT22;44912;52.754;5.994;2023-04-25T12:10:13;8.50;99.90
59128;DHT22;44912;52.754;5.994;2023-04-25T12:12:44;8.50;99.90
59128;DHT22;44912;52.754;5.994;2023-04-25T12:15:24;8.50;99.90
59128;DHT22;44912;52.754;5.994;2023-04-25T12:17:52;8.70;99.90
59128;DHT22;44912;52.754;5.994;2023-04-25T12:20:23;9.30;99.90
59128;DHT22;44912;52.754;5.994;2023-04-25T12:22:50;9.30;99.90
59128;DHT22;44912;52.754;5.994;2023-04-25T12:28:20;8.90;99.90
59128;DHT22;44912;52.754;5.994;2023-04-25T12:33:19;9.70;99.90
59128;DHT22;44912;52.754;5.994;2023-04-25T12:35:44;9.80;99.90
59128;DHT22;44912;52.754;5.994;2023-04-25T12:38:10;9.60;99.90
59128;DHT22;44912;52.754;5.994;2023-04-25T12:40:36;9.50;99.90
59128;DHT22;44912;52.754;5.994;2023-04-25T12:43:01;9.70;99.90
59128;DHT22;44912;52.754;5.994;2023-04-25T12:45:27;10.00;99.90
59128;DHT22;44912;52.754;5.994;2023-04-25T12:47:52;10.40;99.90
59128;DHT22;44912;52.754;5.994;2023-04-25T12:50:18;10.50;99.90
59128;DHT22;44912;52.754;5.994;2023-04-25T12:52:43;10.50;99.90
59128;DHT22;44912;52.754;5.994;2023-04-25T12:55:09;10.50;99.90
59128;DHT22;44912;52.754;5.994;2023-04-25T12:57:35;10.60;99.90
59128;DHT22;44912;52.754;5.994;2023-04-25T13:00:00;10.40;99.90
59128;DHT22;44912;52.754;5.994;2023-04-25T13:02:26;10.20;99.90
59128;DHT22;44912;52.754;5.994;2023-04-25T13:04:51;10.10;99.90
59128;DHT22;44912;52.754;5.994;2023-04-25T13:07:17;10.20;99.90
59128;DHT22;44912;52.754;5.994;2023-04-25T13:09:42;10.40;99.90
59128;DHT22;44912;52.754;5.994;2023-04-25T13:12:08;10.20;99.90
59128;DHT22;44912;52.754;5.994;2023-04-25T13:14:34;9.90;99.90
59128;DHT22;44912;52.754;5.994;2023-04-25T13:16:59;9.80;99.90
59128;DHT22;44912;52.754;5.994;2023-04-25T13:19:25;9.60;99.90
59128;DHT22;44912;52.754;5.994;2023-04-25T13:21:51;9.50;99.90
59128;DHT22;44912;52.754;5.994;2023-04-25T13:24:16;9.70;99.90
59128;DHT22;44912;52.754;5.994;2023-04-25T13:26:43;9.90;99.90
59128;DHT22;44912;52.754;5.994;2023-04-25T13:29:09;9.70;99.90
59128;DHT22;44912;52.754;5.994;2023-04-25T13:31:34;9.20;99.90
59128;DHT22;44912;52.754;5.994;2023-04-25T13:34:00;8.70;99.90
59128;DHT22;44912;52.754;5.994;2023-04-25T13:36:25;8.40;99.90
59128;DHT22;44912;52.754;5.994;2023-04-25T13:38:51;8.30;99.90
59128;DHT22;44912;52.754;5.994;2023-04-25T13:41:17;8.40;99.90
59128;DHT22;44912;52.754;5.994;2023-04-25T13:43:45;8.40;99.90
59128;DHT22;44912;52.754;5.994;2023-04-25T13:46:12;8.60;99.90
59128;DHT22;44912;52.754;5.994;2023-04-25T13:48:38;8.90;99.90
59128;DHT22;44912;52.754;5.994;2023-04-25T13:51:04;9.20;99.90
59128;DHT22;44912;52.754;5.994;2023-04-25T13:53:29;9.60;99.90
59128;DHT22;44912;52.754;5.994;2023-04-25T13:55:55;9.90;99.90
59128;DHT22;44912;52.754;5.994;2023-04-25T13:58:20;10.20;99.90
59128;DHT22;44912;52.754;5.994;2023-04-25T14:00:46;9.80;99.90
59128;DHT22;44912;52.754;5.994;2023-04-25T14:03:12;9.40;99.90
59128;DHT22;44912;52.754;5.994;2023-04-25T14:05:37;9.10;99.90
59128;DHT22;44912;52.754;5.994;2023-04-25T14:08:05;8.90;99.90
59128;DHT22;44912;52.754;5.994;2023-04-25T14:10:30;8.80;99.90
59128;DHT22;44912;52.754;5.994;2023-04-25T14:12:56;9.10;99.90
59128;DHT22;44912;52.754;5.994;2023-04-25T14:15:22;9.70;99.90
59128;DHT22;44912;52.754;5.994;2023-04-25T14:17:47;10.20;99.90
59128;DHT22;44912;52.754;5.994;2023-04-25T14:20:13;10.60;99.90
59128;DHT22;44912;52.754;5.994;2023-04-25T14:22:39;10.90;99.90
59128;DHT22;44912;52.754;5.994;2023-04-25T14:25:08;11.00;99.90
59128;DHT22;44912;52.754;5.994;2023-04-25T14:27:34;10.60;99.90
59128;DHT22;44912;52.754;5.994;2023-04-25T14:29:59;9.80;99.90
59128;DHT22;44912;52.754;5.994;2023-04-25T14:32:25;8.70;99.90
59128;DHT22;44912;52.754;5.994;2023-04-25T14:34:51;7.90;99.90
59128;DHT22;44912;52.754;5.994;2023-04-25T14:37:16;7.20;99.90
59128;DHT22;44912;52.754;5.994;2023-04-25T14:39:42;7.00;99.90
59128;DHT22;44912;52.754;5.994;2023-04-25T14:42:07;6.90;99.90
59128;DHT22;44912;52.754;5.994;2023-04-25T14:44:33;7.20;99.90
59128;DHT22;44912;52.754;5.994;2023-04-25T14:46:59;7.60;99.90
59128;DHT22;44912;52.754;5.994;2023-04-25T14:49:24;7.80;99.90
59128;DHT22;44912;52.754;5.994;2023-04-25T14:51:50;8.10;99.90
59128;DHT22;44912;52.754;5.994;2023-04-25T14:54:16;8.50;99.90
59128;DHT22;44912;52.754;5.994;2023-04-25T14:56:42;8.70;99.90
59128;DHT22;44912;52.754;5.994;2023-04-25T14:59:07;8.70;99.90
59128;DHT22;44912;52.754;5.994;2023-04-25T15:01:33;8.90;99.90
59128;DHT22;44912;52.754;5.994;2023-04-25T15:03:59;9.00;99.90
59128;DHT22;44912;52.754;5.994;2023-04-25T15:06:25;9.10;99.90
59128;DHT22;44912;52.754;5.994;2023-04-25T15:08:53;9.10;99.90
59128;DHT22;44912;52.754;5.994;2023-04-25T15:11:19;9.20;99.90
59128;DHT22;44912;52.754;5.994;2023-04-25T15:13:45;9.10;99.90
59128;DHT22;44912;52.754;5.994;2023-04-25T15:16:11;9.00;99.90
59128;DHT22;44912;52.754;5.994;2023-04-25T15:18:37;9.10;99.90
59128;DHT22;44912;52.754;5.994;2023-04-25T15:21:02;9.10;99.90
59128;DHT22;44912;52.754;5.994;2023-04-25T15:23:28;8.90;99.90
59128;DHT22;44912;52.754;5.994;2023-04-25T15:25:54;8.50;99.90
59128;DHT22;44912;52.754;5.994;2023-04-25T15:28:19;8.20;99.90
59128;DHT22;44912;52.754;5.994;2023-04-25T15:30:46;8.10;99.90
59128;DHT22;44912;52.754;5.994;2023-04-25T15:33:12;8.00;99.90
59128;DHT22;44912;52.754;5.994;2023-04-25T15:35:38;7.80;99.90
59128;DHT22;44912;52.754;5.994;2023-04-25T15:38:04;7.80;99.90
59128;DHT22;44912;52.754;5.994;2023-04-25T15:40:30;7.80;99.90
59128;DHT22;44912;52.754;5.994;2023-04-25T15:42:56;7.90;99.90
59128;DHT22;44912;52.754;5.994;2023-04-25T15:45:23;8.00;99.90
59128;DHT22;44912;52.754;5.994;2023-04-25T15:47:50;8.00;99.90
59128;DHT22;44912;52.754;5.994;2023-04-25T15:50:19;8.00;99.90
59128;DHT22;44912;52.754;5.994;2023-04-25T15:52:49;8.10;99.90